sensor_id;sensor_type;location;lat;lon;timestamp;pressure;altitude;pressure_sealevel;temperature;humidity
11017;BME280;54687;50.800;6.772;2024-03-02T00:01:25;99488.19;;;-144.06;54.33
11017;BME280;54687;50.800;6.772;2024-03-02T00:03:51;99509.38;;;-144.06;54.50
11017;BME280;54687;50.800;6.772;2024-03-02T00:06:21;99471.22;;;-144.06;54.26
11017;BME280;54687;50.800;6.772;2024-03-02T00:08:48;99522.09;;;-144.06;54.35
11017;BME280;54687;50.800;6.772;2024-03-02T00:11:19;99475.47;;;-144.06;54.38
11017;BME280;54687;50.800;6.772;2024-03-02T00:13:46;99528.47;;;-144.06;54.45
11017;BME280;54687;50.800;6.772;2024-03-02T00:16:13;99466.97;;;-144.06;54.49
11017;BME280;54687;50.800;6.772;2024-03-02T00:18:41;99486.06;;;-144.06;54.47
11017;BME280;54687;50.800;6.772;2024-03-02T00:21:08;99479.72;;;-144.06;54.46
11017;BME280;54687;50.800;6.772;2024-03-02T00:23:37;99486.06;;;-144.06;54.30
11017;BME280;54687;50.800;6.772;2024-03-02T00:26:05;99496.66;;;-144.06;54.34
11017;BME280;54687;50.800;6.772;2024-03-02T00:28:34;99481.81;;;-144.06;54.05
11017;BME280;54687;50.800;6.772;2024-03-02T00:31:05;99475.47;;;-144.06;53.88
11017;BME280;54687;50.800;6.772;2024-03-02T00:33:34;99479.72;;;-144.06;53.92
11017;BME280;54687;50.800;6.772;2024-03-02T00:36:01;99488.19;;;-144.06;53.44
11017;BME280;54687;50.800;6.772;2024-03-02T00:38:31;99801.94;;;-144.06;53.51
11017;BME280;54687;50.800;6.772;2024-03-02T00:41:05;99450.03;;;-144.06;53.54
11017;BME280;54687;50.800;6.772;2024-03-02T00:43:42;99346.16;;;-144.06;53.31
11017;BME280;54687;50.800;6.772;2024-03-02T00:46:11;99450.03;;;-144.06;53.09
11017;BME280;54687;50.800;6.772;2024-03-02T00:48:39;99450.03;;;-144.06;53.08
11017;BME280;54687;50.800;6.772;2024-03-02T00:51:09;99462.75;;;-144.06;53.13
11017;BME280;54687;50.800;6.772;2024-03-02T00:53:37;99462.75;;;-144.06;52.93
11017;BME280;54687;50.800;6.772;2024-03-02T00:56:09;99458.50;;;-144.06;53.00
11017;BME280;54687;50.800;6.772;2024-03-02T00:58:37;99488.19;;;-144.06;53.18
11017;BME280;54687;50.800;6.772;2024-03-02T01:01:04;99488.19;;;-144.06;53.34
11017;BME280;54687;50.800;6.772;2024-03-02T01:03:32;99458.50;;;-144.06;53.28
11017;BME280;54687;50.800;6.772;2024-03-02T01:05:59;99473.34;;;-144.06;53.56
11017;BME280;54687;50.800;6.772;2024-03-02T01:08:25;99471.22;;;-144.06;53.42
11017;BME280;54687;50.800;6.772;2024-03-02T01:10:52;99475.47;;;-144.06;53.54
11017;BME280;54687;50.800;6.772;2024-03-02T01:13:21;99488.19;;;-144.06;53.48
11017;BME280;54687;50.800;6.772;2024-03-02T01:15:49;99456.38;;;-144.06;53.62
11017;BME280;54687;50.800;6.772;2024-03-02T01:18:17;99452.16;;;-144.06;53.61
11017;BME280;54687;50.800;6.772;2024-03-02T01:20:46;99471.22;;;-144.06;53.54
11017;BME280;54687;50.800;6.772;2024-03-02T01:23:15;99462.75;;;-144.06;53.34
11017;BME280;54687;50.800;6.772;2024-03-02T01:25:43;99475.47;;;-144.06;53.29
11017;BME280;54687;50.800;6.772;2024-03-02T01:28:14;99454.25;;;-144.06;53.47
11017;BME280;54687;50.800;6.772;2024-03-02T01:30:44;99496.66;;;-144.06;53.31
11017;BME280;54687;50.800;6.772;2024-03-02T01:33:13;99443.66;;;-144.06;53.71
11017;BME280;54687;50.800;6.772;2024-03-02T01:35:44;99464.88;;;-144.06;53.51
11017;BME280;54687;50.800;6.772;2024-03-02T01:38:12;99458.50;;;-144.06;53.68
11017;BME280;54687;50.800;6.772;2024-03-02T01:40:39;99471.22;;;-144.06;53.32
11017;BME280;54687;50.800;6.772;2024-03-02T01:43:07;99454.25;;;-144.06;53.58
11017;BME280;54687;50.800;6.772;2024-03-02T01:45:33;99439.44;;;-144.06;53.44
11017;BME280;54687;50.800;6.772;2024-03-02T01:48:03;99458.50;;;-144.06;53.49
11017;BME280;54687;50.800;6.772;2024-03-02T01:50:32;99441.53;;;-144.06;53.74
11017;BME280;54687;50.800;6.772;2024-03-02T01:52:59;99454.25;;;-144.06;53.93
11017;BME280;54687;50.800;6.772;2024-03-02T01:55:26;99475.47;;;-144.06;53.89
11017;BME280;54687;50.800;6.772;2024-03-02T01:57:54;99441.53;;;-144.06;53.81
11017;BME280;54687;50.800;6.772;2024-03-02T02:00:21;99462.75;;;-144.06;53.95
11017;BME280;54687;50.800;6.772;2024-03-02T02:02:50;99462.75;;;-144.06;53.84
11017;BME280;54687;50.800;6.772;2024-03-02T02:05:18;99475.47;;;-144.06;53.99
11017;BME280;54687;50.800;6.772;2024-03-02T02:07:45;99443.66;;;-144.06;53.95
11017;BME280;54687;50.800;6.772;2024-03-02T02:10:13;99464.88;;;-144.06;53.87
11017;BME280;54687;50.800;6.772;2024-03-02T02:12:40;99433.06;;;-144.06;53.88
11017;BME280;54687;50.800;6.772;2024-03-02T02:15:23;99471.22;;;-144.06;53.68
11017;BME280;54687;50.800;6.772;2024-03-02T02:17:50;99450.03;;;-144.06;53.77
11017;BME280;54687;50.800;6.772;2024-03-02T02:20:18;99464.88;;;-144.06;53.64
11017;BME280;54687;50.800;6.772;2024-03-02T02:23:00;99450.03;;;-144.06;53.66
11017;BME280;54687;50.800;6.772;2024-03-02T02:25:27;99441.53;;;-144.06;53.47
11017;BME280;54687;50.800;6.772;2024-03-02T02:27:55;99458.50;;;-144.06;53.57
11017;BME280;54687;50.800;6.772;2024-03-02T02:30:23;99437.31;;;-144.06;53.59
11017;BME280;54687;50.800;6.772;2024-03-02T02:32:50;99430.94;;;-144.06;53.79
11017;BME280;54687;50.800;6.772;2024-03-02T02:35:17;99447.91;;;-144.06;53.37
11017;BME280;54687;50.800;6.772;2024-03-02T02:37:44;99441.53;;;-144.06;53.66
11017;BME280;54687;50.800;6.772;2024-03-02T02:40:13;99477.59;;;-144.06;53.76
11017;BME280;54687;50.800;6.772;2024-03-02T02:42:40;99435.19;;;-144.06;53.81
11017;BME280;54687;50.800;6.772;2024-03-02T02:45:07;99450.03;;;-144.06;53.65
11017;BME280;54687;50.800;6.772;2024-03-02T02:47:34;99447.91;;;-144.06;53.67
11017;BME280;54687;50.800;6.772;2024-03-02T02:50:02;99454.25;;;-144.06;53.92
11017;BME280;54687;50.800;6.772;2024-03-02T02:52:32;100128.41;;;-144.06;53.78
11017;BME280;54687;50.800;6.772;2024-03-02T02:55:02;99469.09;;;-144.06;53.46
11017;BME280;54687;50.800;6.772;2024-03-02T02:57:31;99428.81;;;-144.06;53.47
11017;BME280;54687;50.800;6.772;2024-03-02T03:00:01;99420.34;;;-144.06;53.69
11017;BME280;54687;50.800;6.772;2024-03-02T03:02:31;99437.31;;;-144.06;53.47
11017;BME280;54687;50.800;6.772;2024-03-02T03:04:57;99414.00;;;-144.06;53.51
11017;BME280;54687;50.800;6.772;2024-03-02T03:07:25;99443.66;;;-144.06;53.37
11017;BME280;54687;50.800;6.772;2024-03-02T03:09:52;99441.53;;;-144.06;53.49
11017;BME280;54687;50.800;6.772;2024-03-02T03:12:19;99420.34;;;-144.06;53.86
11017;BME280;54687;50.800;6.772;2024-03-02T03:14:47;99430.94;;;-144.06;53.74
11017;BME280;54687;50.800;6.772;2024-03-02T03:17:13;99428.81;;;-144.06;53.61
11017;BME280;54687;50.800;6.772;2024-03-02T03:19:40;99441.53;;;-144.06;53.73
11017;BME280;54687;50.800;6.772;2024-03-02T03:22:06;99420.34;;;-144.06;53.88
11017;BME280;54687;50.800;6.772;2024-03-02T03:24:33;99433.06;;;-144.06;53.58
11017;BME280;54687;50.800;6.772;2024-03-02T03:27:00;99430.94;;;-144.06;53.85
11017;BME280;54687;50.800;6.772;2024-03-02T03:29:27;99441.53;;;-144.06;53.51
11017;BME280;54687;50.800;6.772;2024-03-02T03:31:54;99454.25;;;-144.06;53.86
11017;BME280;54687;50.800;6.772;2024-03-02T03:34:22;99445.78;;;-144.06;53.45
11017;BME280;54687;50.800;6.772;2024-03-02T03:36:48;99435.19;;;-144.06;53.25
11017;BME280;54687;50.800;6.772;2024-03-02T03:39:15;99422.47;;;-144.06;53.06
11017;BME280;54687;50.800;6.772;2024-03-02T03:41:43;99433.06;;;-144.06;52.96
11017;BME280;54687;50.800;6.772;2024-03-02T03:44:09;99428.81;;;-144.06;52.82
11017;BME280;54687;50.800;6.772;2024-03-02T03:46:36;99437.31;;;-144.06;52.84
11017;BME280;54687;50.800;6.772;2024-03-02T03:49:04;99420.34;;;-144.06;52.53
11017;BME280;54687;50.800;6.772;2024-03-02T03:51:31;99433.06;;;-144.06;52.44
11017;BME280;54687;50.800;6.772;2024-03-02T03:53:58;99441.53;;;-144.06;52.12
11017;BME280;54687;50.800;6.772;2024-03-02T03:56:25;99454.25;;;-144.06;52.34
11017;BME280;54687;50.800;6.772;2024-03-02T03:58:51;99411.88;;;-144.06;52.30
11017;BME280;54687;50.800;6.772;2024-03-02T04:01:18;99428.81;;;-144.06;52.07
11017;BME280;54687;50.800;6.772;2024-03-02T04:03:47;99416.13;;;-144.06;52.19
11017;BME280;54687;50.800;6.772;2024-03-02T04:06:16;99443.66;;;-144.06;52.51
11017;BME280;54687;50.800;6.772;2024-03-02T04:08:42;99397.03;;;-144.06;52.32
11017;BME280;54687;50.800;6.772;2024-03-02T04:11:09;99409.75;;;-144.06;52.43
11017;BME280;54687;50.800;6.772;2024-03-02T04:13:36;99428.81;;;-144.06;52.41
11017;BME280;54687;50.800;6.772;2024-03-02T04:16:03;99399.16;;;-144.06;52.82
11017;BME280;54687;50.800;6.772;2024-03-02T04:18:30;99416.13;;;-144.06;52.92
11017;BME280;54687;50.800;6.772;2024-03-02T04:20:57;99441.53;;;-144.06;53.10
11017;BME280;54687;50.800;6.772;2024-03-02T04:23:26;99424.59;;;-144.06;53.31
11017;BME280;54687;50.800;6.772;2024-03-02T04:25:53;99418.22;;;-144.06;53.52
11017;BME280;54687;50.800;6.772;2024-03-02T04:28:19;99428.81;;;-144.06;53.34
11017;BME280;54687;50.800;6.772;2024-03-02T04:30:46;99475.47;;;-144.06;53.44
11017;BME280;54687;50.800;6.772;2024-03-02T04:33:13;99384.31;;;-144.06;53.56
11017;BME280;54687;50.800;6.772;2024-03-02T04:35:40;99450.03;;;-144.06;53.74
11017;BME280;54687;50.800;6.772;2024-03-02T04:38:07;99462.75;;;-144.06;53.69
11017;BME280;54687;50.800;6.772;2024-03-02T04:40:35;99447.91;;;-144.06;54.10
11017;BME280;54687;50.800;6.772;2024-03-02T04:43:02;99450.03;;;-144.06;53.96
11017;BME280;54687;50.800;6.772;2024-03-02T04:45:29;99490.31;;;-144.06;54.15
11017;BME280;54687;50.800;6.772;2024-03-02T04:47:56;99441.53;;;-144.06;54.16
11017;BME280;54687;50.800;6.772;2024-03-02T04:50:22;99471.22;;;-144.06;54.24
11017;BME280;54687;50.800;6.772;2024-03-02T04:52:49;99483.94;;;-144.06;54.59
11017;BME280;54687;50.800;6.772;2024-03-02T04:55:16;99492.41;;;-144.06;54.65
11017;BME280;54687;50.800;6.772;2024-03-02T04:58:17;99433.06;;;-144.06;54.40
11017;BME280;54687;50.800;6.772;2024-03-02T05:00:43;99481.81;;;-144.06;54.47
11017;BME280;54687;50.800;6.772;2024-03-02T05:03:11;99473.34;;;-144.06;54.59
11017;BME280;54687;50.800;6.772;2024-03-02T05:05:38;99500.91;;;-144.06;54.30
11017;BME280;54687;50.800;6.772;2024-03-02T05:08:05;99519.97;;;-144.06;54.47
11017;BME280;54687;50.800;6.772;2024-03-02T05:10:33;99460.63;;;-144.06;54.79
11017;BME280;54687;50.800;6.772;2024-03-02T05:12:59;99496.66;;;-144.06;54.72
11017;BME280;54687;50.800;6.772;2024-03-02T05:15:27;99488.19;;;-144.06;54.57
11017;BME280;54687;50.800;6.772;2024-03-02T05:17:54;99490.31;;;-144.06;54.70
11017;BME280;54687;50.800;6.772;2024-03-02T05:20:22;99509.38;;;-144.06;54.79
11017;BME280;54687;50.800;6.772;2024-03-02T05:22:48;99488.19;;;-144.06;55.04
11017;BME280;54687;50.800;6.772;2024-03-02T05:25:15;99288.94;;;-144.06;55.13
11017;BME280;54687;50.800;6.772;2024-03-02T05:27:42;99492.41;;;-144.06;55.06
11017;BME280;54687;50.800;6.772;2024-03-02T05:30:10;99492.41;;;-144.06;55.11
11017;BME280;54687;50.800;6.772;2024-03-02T05:32:38;99513.63;;;-144.06;54.95
11017;BME280;54687;50.800;6.772;2024-03-02T05:35:05;99547.53;;;-144.06;55.11
11017;BME280;54687;50.800;6.772;2024-03-02T05:37:33;99492.41;;;-144.06;55.11
11017;BME280;54687;50.800;6.772;2024-03-02T05:39:59;99496.66;;;-144.06;55.03
11017;BME280;54687;50.800;6.772;2024-03-02T05:42:29;99517.84;;;-144.06;54.94
11017;BME280;54687;50.800;6.772;2024-03-02T05:44:55;99524.22;;;-144.06;54.77
11017;BME280;54687;50.800;6.772;2024-03-02T05:47:22;99549.66;;;-144.06;55.00
11017;BME280;54687;50.800;6.772;2024-03-02T05:49:50;99445.78;;;-144.06;55.25
11017;BME280;54687;50.800;6.772;2024-03-02T05:52:17;99439.44;;;-144.06;55.34
11017;BME280;54687;50.800;6.772;2024-03-02T05:54:44;99526.34;;;-144.06;55.19
11017;BME280;54687;50.800;6.772;2024-03-02T05:57:11;99505.13;;;-144.06;55.30
11017;BME280;54687;50.800;6.772;2024-03-02T05:59:57;99526.34;;;-144.06;55.40
11017;BME280;54687;50.800;6.772;2024-03-02T06:02:24;99536.94;;;-144.06;55.58
11017;BME280;54687;50.800;6.772;2024-03-02T06:04:53;99509.38;;;-144.06;55.17
11017;BME280;54687;50.800;6.772;2024-03-02T06:07:20;99539.06;;;-144.06;55.42
11017;BME280;54687;50.800;6.772;2024-03-02T06:09:46;99500.91;;;-144.06;55.70
11017;BME280;54687;50.800;6.772;2024-03-02T06:12:16;99492.41;;;-144.06;55.24
11017;BME280;54687;50.800;6.772;2024-03-02T06:14:43;99513.63;;;-144.06;55.21
11017;BME280;54687;50.800;6.772;2024-03-02T06:17:09;99534.81;;;-144.06;55.04
11017;BME280;54687;50.800;6.772;2024-03-02T06:19:36;99473.34;;;-144.06;54.90
11017;BME280;54687;50.800;6.772;2024-03-02T06:22:04;99522.09;;;-144.06;55.10
11017;BME280;54687;50.800;6.772;2024-03-02T06:24:31;99475.47;;;-144.06;54.90
11017;BME280;54687;50.800;6.772;2024-03-02T06:26:58;99496.66;;;-144.06;54.64
11017;BME280;54687;50.800;6.772;2024-03-02T06:29:24;99466.97;;;-144.06;54.74
11017;BME280;54687;50.800;6.772;2024-03-02T06:31:51;99473.34;;;-144.06;54.90
11017;BME280;54687;50.800;6.772;2024-03-02T06:34:18;99469.09;;;-144.06;54.83
11017;BME280;54687;50.800;6.772;2024-03-02T06:36:44;99462.75;;;-144.06;54.42
11017;BME280;54687;50.800;6.772;2024-03-02T06:39:12;99450.03;;;-144.06;54.59
11017;BME280;54687;50.800;6.772;2024-03-02T06:41:39;99454.25;;;-144.06;54.36
11017;BME280;54687;50.800;6.772;2024-03-02T06:44:05;99424.59;;;-144.06;54.39
11017;BME280;54687;50.800;6.772;2024-03-02T06:46:32;99450.03;;;-144.06;54.38
11017;BME280;54687;50.800;6.772;2024-03-02T06:48:59;99445.78;;;-144.06;53.99
11017;BME280;54687;50.800;6.772;2024-03-02T06:51:27;99403.41;;;-144.06;53.89
11017;BME280;54687;50.800;6.772;2024-03-02T06:53:54;99443.66;;;-144.06;53.81
11017;BME280;54687;50.800;6.772;2024-03-02T06:56:22;99450.03;;;-144.06;53.82
11017;BME280;54687;50.800;6.772;2024-03-02T06:58:49;99443.66;;;-144.06;54.17
11017;BME280;54687;50.800;6.772;2024-03-02T07:01:15;99388.56;;;-144.06;53.98
11017;BME280;54687;50.800;6.772;2024-03-02T07:03:42;99397.03;;;-144.06;54.00
11017;BME280;54687;50.800;6.772;2024-03-02T07:06:09;99407.63;;;-144.06;53.97
11017;BME280;54687;50.800;6.772;2024-03-02T07:08:36;99443.66;;;-144.06;53.71
11017;BME280;54687;50.800;6.772;2024-03-02T07:11:03;99390.69;;;-144.06;53.40
11017;BME280;54687;50.800;6.772;2024-03-02T07:13:31;99390.69;;;-144.06;53.54
11017;BME280;54687;50.800;6.772;2024-03-02T07:15:57;99390.69;;;-144.06;53.51
11017;BME280;54687;50.800;6.772;2024-03-02T07:18:52;99335.56;;;-144.06;53.22
11017;BME280;54687;50.800;6.772;2024-03-02T07:21:20;99365.25;;;-144.06;53.17
11017;BME280;54687;50.800;6.772;2024-03-02T07:23:47;99350.41;;;-144.06;53.32
11017;BME280;54687;50.800;6.772;2024-03-02T07:26:14;99365.25;;;-144.06;52.99
11017;BME280;54687;50.800;6.772;2024-03-02T07:28:43;99365.25;;;-144.06;53.06
11017;BME280;54687;50.800;6.772;2024-03-02T07:31:10;99356.75;;;-144.06;53.42
11017;BME280;54687;50.800;6.772;2024-03-02T07:33:37;99369.47;;;-144.06;53.30
11017;BME280;54687;50.800;6.772;2024-03-02T07:36:04;99363.13;;;-144.06;53.27
11017;BME280;54687;50.800;6.772;2024-03-02T07:38:31;99348.28;;;-144.06;53.22
11017;BME280;54687;50.800;6.772;2024-03-02T07:40:59;99346.16;;;-144.06;53.39
11017;BME280;54687;50.800;6.772;2024-03-02T07:43:26;99369.47;;;-144.06;53.45
11017;BME280;54687;50.800;6.772;2024-03-02T07:45:54;99361.00;;;-144.06;53.57
11017;BME280;54687;50.800;6.772;2024-03-02T07:48:22;99377.94;;;-144.06;53.52
11017;BME280;54687;50.800;6.772;2024-03-02T07:50:49;99352.53;;;-144.06;53.44
11017;BME280;54687;50.800;6.772;2024-03-02T07:53:15;99331.31;;;-144.06;53.25
11017;BME280;54687;50.800;6.772;2024-03-02T07:55:42;99339.81;;;-144.06;53.34
11017;BME280;54687;50.800;6.772;2024-03-02T07:58:09;99305.88;;;-144.06;52.90
11017;BME280;54687;50.800;6.772;2024-03-02T08:00:38;99225.34;;;-144.06;52.80
11017;BME280;54687;50.800;6.772;2024-03-02T08:03:06;99233.81;;;-144.06;52.36
11017;BME280;54687;50.800;6.772;2024-03-02T08:05:36;99238.06;;;-144.06;51.83
11017;BME280;54687;50.800;6.772;2024-03-02T08:08:04;99216.84;;;-144.06;51.55
11017;BME280;54687;50.800;6.772;2024-03-02T08:10:31;99093.94;;;-144.06;50.94
11017;BME280;54687;50.800;6.772;2024-03-02T08:12:59;99168.13;;;-144.06;50.34
11017;BME280;54687;50.800;6.772;2024-03-02T08:15:25;99149.03;;;-144.06;50.34
11017;BME280;54687;50.800;6.772;2024-03-02T08:17:52;99134.19;;;-144.06;49.91
11017;BME280;54687;50.800;6.772;2024-03-02T08:20:20;99102.41;;;-144.06;49.27
11017;BME280;54687;50.800;6.772;2024-03-02T08:22:47;99083.34;;;-144.06;49.41
11017;BME280;54687;50.800;6.772;2024-03-02T08:25:14;99070.59;;;-144.06;48.48
11017;BME280;54687;50.800;6.772;2024-03-02T08:27:41;99076.97;;;-144.06;48.54
11017;BME280;54687;50.800;6.772;2024-03-02T08:30:08;99083.34;;;-144.06;48.10
11017;BME280;54687;50.800;6.772;2024-03-02T08:32:36;99053.66;;;-144.06;48.21
11017;BME280;54687;50.800;6.772;2024-03-02T08:35:03;99085.44;;;-144.06;48.17
11017;BME280;54687;50.800;6.772;2024-03-02T08:37:32;99055.78;;;-144.06;47.75
11017;BME280;54687;50.800;6.772;2024-03-02T08:39:59;99083.34;;;-144.06;47.83
11017;BME280;54687;50.800;6.772;2024-03-02T08:42:25;99115.13;;;-144.06;48.17
11017;BME280;54687;50.800;6.772;2024-03-02T08:44:52;99098.16;;;-144.06;47.94
11017;BME280;54687;50.800;6.772;2024-03-02T08:47:19;99102.41;;;-144.06;48.03
11017;BME280;54687;50.800;6.772;2024-03-02T08:49:46;99110.88;;;-144.06;48.42
11017;BME280;54687;50.800;6.772;2024-03-02T08:52:12;99104.53;;;-144.06;48.82
11017;BME280;54687;50.800;6.772;2024-03-02T08:54:40;99100.28;;;-144.06;48.68
11017;BME280;54687;50.800;6.772;2024-03-02T08:57:07;99110.88;;;-144.06;48.44
11017;BME280;54687;50.800;6.772;2024-03-02T08:59:34;99068.50;;;-144.06;48.56
11017;BME280;54687;50.800;6.772;2024-03-02T09:02:01;99085.44;;;-144.06;48.49
11017;BME280;54687;50.800;6.772;2024-03-02T09:04:27;99108.75;;;-144.06;48.71
11017;BME280;54687;50.800;6.772;2024-03-02T09:06:54;99064.25;;;-144.06;48.14
11017;BME280;54687;50.800;6.772;2024-03-02T09:09:21;99062.13;;;-144.06;47.65
11017;BME280;54687;50.800;6.772;2024-03-02T09:11:49;99085.44;;;-144.06;47.84
11017;BME280;54687;50.800;6.772;2024-03-02T09:14:16;99055.78;;;-144.06;47.30
11017;BME280;54687;50.800;6.772;2024-03-02T09:16:43;99081.22;;;-144.06;47.22
11017;BME280;54687;50.800;6.772;2024-03-02T09:19:09;99074.84;;;-144.06;46.89
11017;BME280;54687;50.800;6.772;2024-03-02T09:21:36;99047.28;;;-144.06;47.22
11017;BME280;54687;50.800;6.772;2024-03-02T09:24:03;99089.69;;;-144.06;47.14
11017;BME280;54687;50.800;6.772;2024-03-02T09:26:32;99038.81;;;-144.06;47.21
11017;BME280;54687;50.800;6.772;2024-03-02T09:29:00;99051.53;;;-144.06;47.23
11017;BME280;54687;50.800;6.772;2024-03-02T09:31:26;99055.78;;;-144.06;47.09
11017;BME280;54687;50.800;6.772;2024-03-02T09:33:53;99000.66;;;-144.06;46.65
11017;BME280;54687;50.800;6.772;2024-03-02T09:36:21;99053.66;;;-144.06;46.50
11017;BME280;54687;50.800;6.772;2024-03-02T09:38:48;99032.47;;;-144.06;46.62
11017;BME280;54687;50.800;6.772;2024-03-02T09:41:15;99019.75;;;-144.06;46.75
11017;BME280;54687;50.800;6.772;2024-03-02T09:43:42;99034.59;;;-144.06;46.72
11017;BME280;54687;50.800;6.772;2024-03-02T09:46:10;98973.13;;;-144.06;46.99
11017;BME280;54687;50.800;6.772;2024-03-02T09:48:37;98954.03;;;-144.06;46.11
11017;BME280;54687;50.800;6.772;2024-03-02T09:51:04;98983.72;;;-144.06;46.15
11017;BME280;54687;50.800;6.772;2024-03-02T09:53:32;98937.09;;;-144.06;45.57
11017;BME280;54687;50.800;6.772;2024-03-02T09:56:00;98943.44;;;-144.06;45.69
11017;BME280;54687;50.800;6.772;2024-03-02T09:58:27;98928.59;;;-144.06;45.12
11017;BME280;54687;50.800;6.772;2024-03-02T10:00:53;98971.00;;;-144.06;45.13
11017;BME280;54687;50.800;6.772;2024-03-02T10:03:22;98907.41;;;-144.06;45.01
11017;BME280;54687;50.800;6.772;2024-03-02T10:05:49;98894.69;;;-144.06;44.80
11017;BME280;54687;50.800;6.772;2024-03-02T10:08:17;98920.13;;;-144.06;44.47
11017;BME280;54687;50.800;6.772;2024-03-02T10:10:43;98949.81;;;-144.06;44.41
11017;BME280;54687;50.800;6.772;2024-03-02T10:13:11;98901.06;;;-144.06;44.02
11017;BME280;54687;50.800;6.772;2024-03-02T10:15:39;98911.66;;;-144.06;43.51
11017;BME280;54687;50.800;6.772;2024-03-02T10:18:08;98879.84;;;-144.06;43.95
11017;BME280;54687;50.800;6.772;2024-03-02T10:20:38;98881.97;;;-144.06;43.91
11017;BME280;54687;50.800;6.772;2024-03-02T10:23:12;98881.97;;;-144.06;43.89
11017;BME280;54687;50.800;6.772;2024-03-02T10:25:39;98865.03;;;-144.06;43.78
11017;BME280;54687;50.800;6.772;2024-03-02T10:28:06;98865.03;;;-144.06;43.95
11017;BME280;54687;50.800;6.772;2024-03-02T10:30:33;98884.09;;;-144.06;43.41
11017;BME280;54687;50.800;6.772;2024-03-02T10:33:00;98786.59;;;-144.06;43.67
11017;BME280;54687;50.800;6.772;2024-03-02T10:35:28;98733.63;;;-144.06;43.18
11017;BME280;54687;50.800;6.772;2024-03-02T10:37:58;98792.97;;;-144.06;43.49
11017;BME280;54687;50.800;6.772;2024-03-02T10:40:26;98646.72;;;-144.06;43.51
11017;BME280;54687;50.800;6.772;2024-03-02T10:42:53;98797.19;;;-144.06;43.17
11017;BME280;54687;50.800;6.772;2024-03-02T10:45:20;98816.28;;;-144.06;43.47
11017;BME280;54687;50.800;6.772;2024-03-02T10:47:49;98788.72;;;-144.06;43.11
11017;BME280;54687;50.800;6.772;2024-03-02T10:50:16;98759.06;;;-144.06;42.80
11017;BME280;54687;50.800;6.772;2024-03-02T10:52:43;98767.53;;;-144.06;42.54
11017;BME280;54687;50.800;6.772;2024-03-02T10:55:11;98784.50;;;-144.06;42.58
11017;BME280;54687;50.800;6.772;2024-03-02T10:57:41;98792.97;;;-144.06;42.76
11017;BME280;54687;50.800;6.772;2024-03-02T11:00:12;98746.34;;;-144.06;42.80
11017;BME280;54687;50.800;6.772;2024-03-02T11:02:43;98674.28;;;-144.06;42.51
11017;BME280;54687;50.800;6.772;2024-03-02T11:05:16;98752.69;;;-144.06;42.53
11017;BME280;54687;50.800;6.772;2024-03-02T11:07:48;98763.28;;;-144.06;42.59
11017;BME280;54687;50.800;6.772;2024-03-02T11:10:16;98729.38;;;-144.06;42.73
11017;BME280;54687;50.800;6.772;2024-03-02T11:12:48;98729.38;;;-144.06;42.64
11017;BME280;54687;50.800;6.772;2024-03-02T11:15:18;98737.88;;;-144.06;42.83
11017;BME280;54687;50.800;6.772;2024-03-02T11:17:46;99028.22;;;-144.06;42.62
11017;BME280;54687;50.800;6.772;2024-03-02T11:20:14;98733.63;;;-144.06;42.56
11017;BME280;54687;50.800;6.772;2024-03-02T11:22:41;98684.88;;;-144.06;42.85
11017;BME280;54687;50.800;6.772;2024-03-02T11:25:24;98754.81;;;-144.06;42.60
11017;BME280;54687;50.800;6.772;2024-03-02T11:28:05;98718.78;;;-144.06;42.69
11017;BME280;54687;50.800;6.772;2024-03-02T11:30:50;98708.19;;;-144.06;42.65
11017;BME280;54687;50.800;6.772;2024-03-02T11:33:27;98746.34;;;-144.06;42.35
11017;BME280;54687;50.800;6.772;2024-03-02T11:35:56;98756.94;;;-144.06;42.48
11017;BME280;54687;50.800;6.772;2024-03-02T11:38:28;98780.25;;;-144.06;42.95
11017;BME280;54687;50.800;6.772;2024-03-02T11:40:56;98759.06;;;-144.06;43.09
11017;BME280;54687;50.800;6.772;2024-03-02T11:43:23;98818.41;;;-144.06;43.34
11017;BME280;54687;50.800;6.772;2024-03-02T11:45:56;98778.13;;;-144.06;43.28
11017;BME280;54687;50.800;6.772;2024-03-02T11:48:24;98759.06;;;-144.06;43.56
11017;BME280;54687;50.800;6.772;2024-03-02T11:50:51;98790.84;;;-144.06;43.58
11017;BME280;54687;50.800;6.772;2024-03-02T11:53:19;98776.00;;;-144.06;43.32
11017;BME280;54687;50.800;6.772;2024-03-02T11:55:46;98754.81;;;-144.06;42.65
11017;BME280;54687;50.800;6.772;2024-03-02T11:58:15;98739.97;;;-144.06;42.92
11017;BME280;54687;50.800;6.772;2024-03-02T12:00:43;98748.47;;;-144.06;42.79
11017;BME280;54687;50.800;6.772;2024-03-02T12:03:12;98725.16;;;-144.06;42.83
11017;BME280;54687;50.800;6.772;2024-03-02T12:05:39;98699.72;;;-144.06;42.93
11017;BME280;54687;50.800;6.772;2024-03-02T12:08:06;98699.72;;;-144.06;42.98
11017;BME280;54687;50.800;6.772;2024-03-02T12:10:34;98636.13;;;-144.06;42.65
11017;BME280;54687;50.800;6.772;2024-03-02T12:13:02;98640.38;;;-144.06;42.14
11017;BME280;54687;50.800;6.772;2024-03-02T12:15:32;98623.41;;;-144.06;42.04
11017;BME280;54687;50.800;6.772;2024-03-02T12:18:00;98627.66;;;-144.06;41.94
11017;BME280;54687;50.800;6.772;2024-03-02T12:20:28;98587.41;;;-144.06;41.59
11017;BME280;54687;50.800;6.772;2024-03-02T12:22:57;98621.31;;;-144.06;41.28
11017;BME280;54687;50.800;6.772;2024-03-02T12:25:24;98568.31;;;-144.06;41.40
11017;BME280;54687;50.800;6.772;2024-03-02T12:27:53;98617.06;;;-144.06;41.37
11017;BME280;54687;50.800;6.772;2024-03-02T12:30:21;98568.31;;;-144.06;41.16
11017;BME280;54687;50.800;6.772;2024-03-02T12:32:51;98574.69;;;-144.06;41.45
11017;BME280;54687;50.800;6.772;2024-03-02T12:35:18;98561.97;;;-144.06;40.99
11017;BME280;54687;50.800;6.772;2024-03-02T12:37:46;98568.31;;;-144.06;41.22
11017;BME280;54687;50.800;6.772;2024-03-02T12:40:13;98578.91;;;-144.06;40.91
11017;BME280;54687;50.800;6.772;2024-03-02T12:42:43;98549.25;;;-144.06;40.84
11017;BME280;54687;50.800;6.772;2024-03-02T12:45:10;98466.59;;;-144.06;40.75